Bucks Bridge, New York
Current Conditions -  °F | °C
As of 3:53 AM on Wednesday 28 Jan 2015 (Local Time) from KMSS Reporting Station
Clear Clear  
Wind Chill: -20°   Ceiling: Unl
Heat Index: -14°   Visibility: 10mi
Dew Point: -23°   Wind: 6mph
Humidity: 48%   Direction: 320°NW
Pressure: 30.08"   Gusts: NA
Location:  44.5792°N, 75.1592°W
Report Text: KMSS 280853Z AUTO 32005KT 10SM CLR M14/M23 A3008 RMK AO2 SLP197 T11391228 53007
Loading
Personal Weather Stations






























Interactive Weather Map New forecast layout! Learn more

10-Day Weather Forecast

Advertisements
Track Severe Weather on mobile